Time;durP1;ratioP1;P1;durP2;ratioP2;P2;SDS_P1;SDS_P2;PMS_P1;PMS_P2;Temp;Humidity;BMP_temperature;BMP_pressure;BME280_temperature;BME280_humidity;BME280_pressure;Samples;Min_cycle;Max_cycle;Signal;HPM_P1;HPM_P2
2024/02/20 00:01:40;;;;;;;28.90;12.88;;;8.60;99.90;;;;;;5068755;28;20104;-57
2024/02/20 00:04:09;;;;;;;26.08;12.45;;;8.60;99.90;;;;;;5069435;28;20458;-57
2024/02/20 00:06:35;;;;;;;24.25;12.52;;;8.60;99.90;;;;;;5069238;28;20099;-57
2024/02/20 00:09:02;;;;;;;22.95;11.95;;;8.50;99.90;;;;;;5069154;28;20486;-57
2024/02/20 00:11:28;;;;;;;21.02;10.90;;;8.50;99.90;;;;;;5067957;28;20134;-57
2024/02/20 00:13:54;;;;;;;21.58;10.90;;;8.50;99.90;;;;;;5067571;28;20028;-57
2024/02/20 00:16:21;;;;;;;23.63;11.38;;;8.50;99.90;;;;;;5068848;28;20362;-57
2024/02/20 00:18:47;;;;;;;18.33;10.82;;;8.50;99.90;;;;;;5068729;28;20304;-57
2024/02/20 00:21:13;;;;;;;18.40;10.35;;;8.50;99.90;;;;;;5068999;28;20023;-57
2024/02/20 00:23:39;;;;;;;21.88;11.55;;;8.50;99.90;;;;;;5067472;28;20024;-57
2024/02/20 00:26:04;;;;;;;20.45;10.68;;;8.50;99.90;;;;;;5068344;28;20092;-58
2024/02/20 00:28:30;;;;;;;20.27;10.20;;;8.40;99.90;;;;;;5068649;28;20102;-57
2024/02/20 00:30:55;;;;;;;18.42;9.77;;;8.40;99.90;;;;;;5068629;28;20018;-57
2024/02/20 00:33:21;;;;;;;22.30;9.13;;;8.40;99.90;;;;;;5067442;28;20031;-57
2024/02/20 00:35:47;;;;;;;12.55;7.75;;;8.40;99.90;;;;;;5067051;28;20020;-57
2024/02/20 00:38:12;;;;;;;13.18;7.93;;;8.40;99.90;;;;;;5067954;28;20025;-57
2024/02/20 00:40:39;;;;;;;14.23;7.88;;;8.40;99.90;;;;;;5065865;28;20358;-57
2024/02/20 00:43:05;;;;;;;14.20;6.95;;;8.40;99.90;;;;;;5067679;28;20153;-57
2024/02/20 00:45:31;;;;;;;11.98;6.85;;;8.40;99.90;;;;;;5065827;28;20444;-57
2024/02/20 00:47:56;;;;;;;12.32;6.32;;;8.40;99.90;;;;;;5067525;28;20016;-57
2024/02/20 00:50:22;;;;;;;8.93;5.32;;;8.40;99.90;;;;;;5073716;28;20165;-57
2024/02/20 00:52:49;;;;;;;9.88;4.80;;;8.30;99.90;;;;;;5077472;28;20037;-57
2024/02/20 00:55:14;;;;;;;6.35;3.97;;;8.30;99.90;;;;;;5073472;28;20024;-57
2024/02/20 00:57:40;;;;;;;5.90;3.75;;;8.30;99.90;;;;;;5086920;28;20024;-57
2024/02/20 01:00:06;;;;;;;9.60;3.80;;;8.30;99.90;;;;;;5072379;28;20083;-57
2024/02/20 01:02:31;;;;;;;5.38;3.60;;;8.30;99.90;;;;;;5087822;28;20028;-57
2024/02/20 01:04:57;;;;;;;5.88;3.15;;;8.20;99.90;;;;;;5083653;28;20020;-57
2024/02/20 01:07:24;;;;;;;5.28;3.00;;;8.20;99.90;;;;;;5081074;28;20024;-57
2024/02/20 01:09:49;;;;;;;4.93;2.85;;;8.20;99.90;;;;;;5085245;28;20385;-57
2024/02/20 01:12:15;;;;;;;5.68;3.25;;;8.20;99.90;;;;;;5068304;28;20021;-57
2024/02/20 01:14:42;;;;;;;5.95;2.83;;;8.20;99.90;;;;;;5083922;28;20485;-58
2024/02/20 01:17:08;;;;;;;5.65;3.08;;;8.20;99.90;;;;;;5074890;28;20025;-57
2024/02/20 01:19:33;;;;;;;6.72;2.92;;;8.20;99.90;;;;;;5075629;28;20230;-57
2024/02/20 01:21:59;;;;;;;7.22;3.08;;;8.10;99.90;;;;;;5075574;28;20062;-57
2024/02/20 01:24:24;;;;;;;5.75;3.10;;;8.10;99.90;;;;;;5082227;28;20323;-57
2024/02/20 01:26:50;;;;;;;4.95;2.28;;;8.10;99.90;;;;;;5078376;28;20526;-57
2024/02/20 01:29:21;;;;;;;2.75;2.05;;;8.00;99.90;;;;;;5077638;28;20020;-57
2024/02/20 01:31:48;;;;;;;2.85;1.88;;;8.00;99.90;;;;;;5078418;28;20535;-57
2024/02/20 01:34:13;;;;;;;4.40;2.40;;;8.00;99.90;;;;;;5081471;28;20046;-57
2024/02/20 01:36:39;;;;;;;5.60;2.22;;;8.00;99.90;;;;;;5067245;28;20077;-57
2024/02/20 01:39:04;;;;;;;5.68;2.20;;;7.90;99.90;;;;;;5075434;28;20029;-57
2024/02/20 01:41:30;;;;;;;2.50;1.70;;;7.90;99.90;;;;;;5075543;28;20063;-57
2024/02/20 01:43:55;;;;;;;2.28;1.42;;;7.90;99.90;;;;;;5085918;28;20036;-57
2024/02/20 01:46:22;;;;;;;3.20;1.52;;;7.80;99.90;;;;;;5078601;28;20040;-57
2024/02/20 01:48:49;;;;;;;3.85;1.35;;;7.80;99.90;;;;;;5068769;28;20035;-57
2024/02/20 01:51:15;;;;;;;4.95;1.73;;;7.80;99.90;;;;;;5081396;28;20029;-57
2024/02/20 01:53:41;;;;;;;3.60;1.27;;;7.80;99.90;;;;;;5065682;28;20398;-57
2024/02/20 01:56:09;;;;;;;2.78;1.27;;;7.80;99.90;;;;;;5071015;28;20097;-57
2024/02/20 01:58:35;;;;;;;3.45;1.20;;;7.80;99.90;;;;;;5076769;28;20013;-57
2024/02/20 02:01:03;;;;;;;3.38;1.40;;;7.70;99.90;;;;;;5082585;28;20267;-57
2024/02/20 02:03:29;;;;;;;3.65;1.55;;;7.70;99.90;;;;;;5074429;28;20039;-57
2024/02/20 02:05:54;;;;;;;3.50;1.80;;;7.70;99.90;;;;;;5074994;28;20654;-57
2024/02/20 02:08:20;;;;;;;2.10;1.30;;;7.70;99.90;;;;;;5067268;28;20441;-57
2024/02/20 02:10:45;;;;;;;5.85;1.83;;;7.70;99.90;;;;;;5066858;28;20029;-57
2024/02/20 02:13:11;;;;;;;3.72;1.40;;;7.70;99.90;;;;;;5085747;28;20020;-57
2024/02/20 02:15:37;;;;;;;4.30;1.50;;;7.70;99.90;;;;;;5077091;28;20028;-57
2024/02/20 02:18:02;;;;;;;5.25;1.85;;;7.70;99.90;;;;;;5074569;28;20028;-57
2024/02/20 02:20:28;;;;;;;3.72;1.90;;;7.70;99.90;;;;;;5066890;28;20029;-57
2024/02/20 02:22:54;;;;;;;4.53;1.27;;;7.80;99.90;;;;;;5070665;28;20036;-57
2024/02/20 02:25:19;;;;;;;4.85;1.88;;;7.70;99.90;;;;;;5069289;28;20020;-57
2024/02/20 02:27:45;;;;;;;4.90;1.70;;;7.80;99.90;;;;;;5069406;28;20031;-57
2024/02/20 02:30:11;;;;;;;6.25;1.70;;;7.70;99.90;;;;;;5067044;28;20313;-57
2024/02/20 02:32:37;;;;;;;5.55;1.88;;;7.80;99.90;;;;;;5065086;28;20048;-57
2024/02/20 02:35:03;;;;;;;3.55;1.92;;;7.80;99.90;;;;;;5068210;28;20055;-57
2024/02/20 02:37:29;;;;;;;2.85;2.22;;;7.80;99.90;;;;;;5067693;28;20016;-57
2024/02/20 02:39:54;;;;;;;5.22;2.10;;;7.70;99.90;;;;;;5084947;28;20435;-57
2024/02/20 02:42:20;;;;;;;6.10;2.72;;;7.70;99.90;;;;;;5071170;28;20078;-57
2024/02/20 02:44:46;;;;;;;6.18;2.35;;;7.70;99.90;;;;;;5084206;28;20107;-57
2024/02/20 02:47:12;;;;;;;7.13;3.60;;;7.70;99.90;;;;;;5075007;28;20023;-57
2024/02/20 02:49:37;;;;;;;8.60;3.08;;;7.70;99.90;;;;;;5080339;28;20024;-57
2024/02/20 02:52:04;;;;;;;10.70;3.25;;;7.70;99.90;;;;;;5077834;28;20086;-57
2024/02/20 02:54:30;;;;;;;12.52;3.83;;;7.60;99.90;;;;;;5076986;28;20485;-58
2024/02/20 02:56:57;;;;;;;8.93;3.50;;;7.60;99.90;;;;;;5084283;28;20040;-57
2024/02/20 02:59:22;;;;;;;6.75;3.13;;;7.60;99.90;;;;;;5077463;28;20023;-57
2024/02/20 03:01:49;;;;;;;12.45;3.13;;;7.60;99.90;;;;;;5078124;28;20020;-57
2024/02/20 03:04:14;;;;;;;9.85;3.15;;;7.60;99.90;;;;;;5081609;28;20021;-57
2024/02/20 03:06:40;;;;;;;8.70;2.90;;;7.60;99.90;;;;;;5077117;28;20070;-57
2024/02/20 03:09:12;;;;;;;8.30;2.78;;;7.50;99.90;;;;;;5070067;28;20020;-57
2024/02/20 03:11:41;;;;;;;14.77;3.03;;;7.60;99.90;;;;;;5076874;28;20023;-57
2024/02/20 03:14:08;;;;;;;12.13;3.08;;;7.50;99.90;;;;;;5076568;28;20509;-57
2024/02/20 03:16:34;;;;;;;10.73;2.83;;;7.50;99.90;;;;;;5069495;28;20036;-57
2024/02/20 03:19:03;;;;;;;7.70;2.55;;;7.50;99.90;;;;;;5071875;28;20025;-57
2024/02/20 03:21:30;;;;;;;10.77;2.95;;;7.50;99.90;;;;;;5073423;28;20009;-57
2024/02/20 03:23:55;;;;;;;8.07;2.95;;;7.60;99.90;;;;;;5083005;28;20032;-57
2024/02/20 03:26:21;;;;;;;9.50;3.15;;;7.50;99.90;;;;;;5069284;28;20042;-57
2024/02/20 03:28:46;;;;;;;9.82;2.35;;;7.50;99.90;;;;;;5083017;28;20274;-57
2024/02/20 03:31:13;;;;;;;11.68;2.95;;;7.50;99.90;;;;;;5068193;28;20020;-57
2024/02/20 03:33:39;;;;;;;9.30;2.22;;;7.40;99.90;;;;;;5069587;28;20017;-57
2024/02/20 03:36:05;;;;;;;10.15;2.80;;;7.40;99.90;;;;;;5084937;28;20025;-57
2024/02/20 03:38:30;;;;;;;10.27;2.40;;;7.40;99.90;;;;;;5073133;28;20498;-57
2024/02/20 03:40:56;;;;;;;10.10;3.03;;;7.40;99.90;;;;;;5082433;28;20052;-57
2024/02/20 03:43:21;;;;;;;5.75;2.50;;;7.40;99.90;;;;;;5069382;28;20020;-57
2024/02/20 03:45:47;;;;;;;7.90;2.75;;;7.40;99.90;;;;;;5081429;28;20031;-57
2024/02/20 03:48:12;;;;;;;6.38;2.35;;;7.40;99.90;;;;;;5068864;28;20027;-57
2024/02/20 03:50:38;;;;;;;10.93;3.17;;;7.40;99.90;;;;;;5074731;28;20028;-57
2024/02/20 03:53:05;;;;;;;6.25;2.67;;;7.40;99.90;;;;;;5081523;28;20037;-57
2024/02/20 03:55:31;;;;;;;7.40;2.38;;;7.40;99.90;;;;;;5077809;28;20017;-57
2024/02/20 03:57:57;;;;;;;6.30;2.63;;;7.40;99.90;;;;;;5082680;28;20035;-57
2024/02/20 04:00:25;;;;;;;9.90;2.83;;;7.40;99.90;;;;;;5078421;28;20020;-57
2024/02/20 04:02:53;;;;;;;16.77;3.13;;;7.40;99.90;;;;;;5070280;28;20236;-57
2024/02/20 04:05:19;;;;;;;11.45;3.10;;;7.40;99.90;;;;;;5077781;28;20482;-57
2024/02/20 04:07:46;;;;;;;7.38;2.70;;;7.40;99.90;;;;;;5075193;28;20037;-57
2024/02/20 04:10:13;;;;;;;7.13;3.38;;;7.40;99.90;;;;;;5078426;28;20016;-57
2024/02/20 04:12:38;;;;;;;7.30;2.80;;;7.50;99.90;;;;;;5077952;28;20019;-57
2024/02/20 04:15:08;;;;;;;11.13;3.55;;;7.40;99.90;;;;;;5074483;28;20025;-57
2024/02/20 04:17:34;;;;;;;8.80;3.28;;;7.40;99.90;;;;;;5068753;28;20020;-57
2024/02/20 04:20:03;;;;;;;8.10;3.30;;;7.50;99.90;;;;;;5068639;28;20082;-56
2024/02/20 04:22:30;;;;;;;9.20;3.63;;;7.40;99.90;;;;;;5072369;28;20107;-57
2024/02/20 04:24:59;;;;;;;12.50;4.15;;;7.40;99.90;;;;;;5067283;28;20028;-57
2024/02/20 04:27:26;;;;;;;11.90;3.95;;;7.50;99.90;;;;;;5066657;28;20332;-56
2024/02/20 04:29:51;;;;;;;9.90;4.38;;;7.40;99.90;;;;;;5069579;28;20082;-57
2024/02/20 04:32:18;;;;;;;24.38;5.50;;;7.50;99.90;;;;;;5083925;28;20028;-57
2024/02/20 04:34:43;;;;;;;12.23;4.28;;;7.50;99.90;;;;;;5072343;28;20131;-56
2024/02/20 04:37:09;;;;;;;13.02;4.72;;;7.40;99.90;;;;;;5068266;28;20097;-57
2024/02/20 04:39:34;;;;;;;23.02;5.00;;;7.40;99.90;;;;;;5068006;28;20096;-56
2024/02/20 04:42:00;;;;;;;21.98;5.13;;;7.40;99.90;;;;;;5066632;28;20044;-56
2024/02/20 04:44:26;;;;;;;17.90;5.22;;;7.40;99.90;;;;;;5072536;28;20040;-57
2024/02/20 04:46:51;;;;;;;16.95;6.07;;;7.40;99.90;;;;;;5073936;28;20052;-57
2024/02/20 04:49:16;;;;;;;28.08;6.10;;;7.40;99.90;;;;;;5083212;28;20039;-57
2024/02/20 04:51:42;;;;;;;17.05;4.95;;;7.40;99.90;;;;;;5076202;28;20393;-57
2024/02/20 04:54:08;;;;;;;17.48;5.65;;;7.40;99.90;;;;;;5068924;28;20111;-57
2024/02/20 04:56:34;;;;;;;18.55;6.10;;;7.30;99.90;;;;;;5081413;28;20030;-57
2024/02/20 04:58:59;;;;;;;26.25;6.07;;;7.40;99.90;;;;;;5074598;28;20478;-56
2024/02/20 05:01:25;;;;;;;25.73;5.80;;;7.30;99.90;;;;;;5077149;28;20031;-56
2024/02/20 05:03:51;;;;;;;26.00;6.13;;;7.40;99.90;;;;;;5073257;28;20028;-56
2024/02/20 05:06:16;;;;;;;22.85;6.25;;;7.30;99.90;;;;;;5072890;28;20103;-56
2024/02/20 05:08:42;;;;;;;21.75;5.82;;;7.30;99.90;;;;;;5073329;28;20032;-57
2024/02/20 05:11:08;;;;;;;24.48;5.78;;;7.30;99.90;;;;;;5081450;28;20463;-56
2024/02/20 05:13:33;;;;;;;26.50;5.82;;;7.30;99.90;;;;;;5076876;28;20359;-56
2024/02/20 05:15:59;;;;;;;20.30;5.07;;;7.30;99.90;;;;;;5073172;28;20095;-56
2024/02/20 05:18:24;;;;;;;21.48;5.28;;;7.30;99.90;;;;;;5080579;28;20016;-56
2024/02/20 05:20:50;;;;;;;28.70;6.78;;;7.30;99.90;;;;;;5073737;28;20044;-56
2024/02/20 05:23:16;;;;;;;25.33;6.45;;;7.30;99.90;;;;;;5078339;28;20246;-56
2024/02/20 05:25:42;;;;;;;23.73;4.65;;;7.40;99.90;;;;;;5072867;28;20560;-56
2024/02/20 05:28:07;;;;;;;28.48;5.20;;;7.40;99.90;;;;;;5072907;28;20033;-56
2024/02/20 05:30:36;;;;;;;20.85;5.60;;;7.30;99.90;;;;;;5067679;28;20106;-56
2024/02/20 05:33:02;;;;;;;23.17;4.85;;;7.30;99.90;;;;;;5079124;28;20445;-56
2024/02/20 05:35:28;;;;;;;30.50;5.97;;;7.30;99.90;;;;;;5076660;28;20548;-56
2024/02/20 05:37:53;;;;;;;32.10;5.97;;;7.30;99.90;;;;;;5072822;28;20036;-56
2024/02/20 05:40:19;;;;;;;32.75;5.55;;;7.20;99.90;;;;;;5076545;28;20029;-56
2024/02/20 05:42:44;;;;;;;31.17;5.85;;;7.20;99.90;;;;;;5071643;28;20017;-56
2024/02/20 05:45:10;;;;;;;30.00;6.32;;;7.20;99.90;;;;;;5079376;28;20031;-56
2024/02/20 05:47:36;;;;;;;34.58;4.93;;;7.20;99.90;;;;;;5070195;28;20091;-56
2024/02/20 05:50:02;;;;;;;30.00;5.05;;;7.20;99.90;;;;;;5072735;28;20077;-56
2024/02/20 05:52:27;;;;;;;21.42;5.00;;;7.20;99.90;;;;;;5071941;28;20024;-56
2024/02/20 05:54:54;;;;;;;31.73;5.55;;;7.20;99.90;;;;;;5078066;28;20048;-57
2024/02/20 05:57:19;;;;;;;45.55;5.82;;;7.20;99.90;;;;;;5075529;28;20077;-56
2024/02/20 05:59:45;;;;;;;26.42;5.50;;;7.20;99.90;;;;;;5069053;28;20037;-56
2024/02/20 06:02:10;;;;;;;23.75;5.13;;;7.10;99.90;;;;;;5069025;28;20102;-56
2024/02/20 06:04:36;;;;;;;26.58;5.22;;;7.10;99.90;;;;;;5075146;28;20099;-56
2024/02/20 06:07:02;;;;;;;22.08;5.20;;;7.10;99.90;;;;;;5065558;28;20024;-56
2024/02/20 06:09:29;;;;;;;38.53;6.53;;;7.10;99.90;;;;;;5067321;28;20340;-56
2024/02/20 06:11:54;;;;;;;35.35;6.50;;;7.10;99.90;;;;;;5081400;28;20055;-56
2024/02/20 06:14:20;;;;;;;29.40;5.00;;;7.10;99.90;;;;;;5079040;28;20107;-56
2024/02/20 06:16:46;;;;;;;28.98;5.05;;;7.10;99.90;;;;;;5082563;28;20081;-56
2024/02/20 06:19:11;;;;;;;19.15;4.20;;;7.10;99.90;;;;;;5072296;28;20029;-56
2024/02/20 06:21:38;;;;;;;20.73;4.75;;;7.10;99.90;;;;;;5073303;28;20583;-57
2024/02/20 06:24:04;;;;;;;23.20;5.35;;;7.10;99.90;;;;;;5070086;28;20027;-56
2024/02/20 06:26:30;;;;;;;30.13;5.55;;;7.10;99.90;;;;;;5078644;28;20020;-56
2024/02/20 06:28:56;;;;;;;29.75;6.45;;;7.20;99.90;;;;;;5070919;28;20079;-56
2024/02/20 06:31:22;;;;;;;25.70;5.30;;;7.20;99.90;;;;;;5070753;28;20028;-56
2024/02/20 06:33:47;;;;;;;26.75;4.90;;;7.20;99.90;;;;;;5074071;28;20030;-56
2024/02/20 06:36:13;;;;;;;30.38;6.53;;;7.20;99.90;;;;;;5072557;28;20477;-56
2024/02/20 06:38:39;;;;;;;34.47;6.53;;;7.20;99.90;;;;;;5082370;28;20028;-56
2024/02/20 06:41:05;;;;;;;35.75;5.95;;;7.20;99.90;;;;;;5075108;28;20033;-56
2024/02/20 06:43:30;;;;;;;33.10;6.32;;;7.20;99.90;;;;;;5079731;28;20220;-56
2024/02/20 06:45:56;;;;;;;37.15;7.00;;;7.20;99.90;;;;;;5074935;28;20418;-56
2024/02/20 06:48:22;;;;;;;46.78;7.13;;;7.20;99.90;;;;;;5073173;28;20065;-57
2024/02/20 06:50:48;;;;;;;42.00;6.97;;;7.20;99.90;;;;;;5076373;28;20033;-56
2024/02/20 06:53:13;;;;;;;34.10;7.03;;;7.20;99.90;;;;;;5076903;28;20603;-56
2024/02/20 06:55:39;;;;;;;27.30;7.10;;;7.20;99.90;;;;;;5077292;28;20431;-56
2024/02/20 06:58:04;;;;;;;39.03;6.82;;;7.20;99.90;;;;;;5078299;28;20032;-56
2024/02/20 07:00:30;;;;;;;37.10;6.07;;;7.20;99.90;;;;;;5078332;28;20498;-56
2024/02/20 07:02:55;;;;;;;42.08;8.82;;;7.20;99.90;;;;;;5075550;28;20104;-56
2024/02/20 07:05:21;;;;;;;31.33;6.10;;;7.20;99.90;;;;;;5077083;28;20685;-56
2024/02/20 07:07:46;;;;;;;34.65;6.70;;;7.20;99.90;;;;;;5070842;28;20137;-56
2024/02/20 07:10:12;;;;;;;32.75;6.55;;;7.20;99.90;;;;;;5071424;28;20056;-56
2024/02/20 07:12:38;;;;;;;40.22;7.88;;;7.20;99.90;;;;;;5069673;28;20367;-56
2024/02/20 07:15:06;;;;;;;40.17;7.43;;;7.20;99.90;;;;;;5073665;28;20430;-57
2024/02/20 07:17:33;;;;;;;44.80;7.32;;;7.20;99.90;;;;;;5070238;28;20009;-57
2024/02/20 07:19:59;;;;;;;31.02;6.60;;;7.30;99.90;;;;;;5074181;28;20086;-57
2024/02/20 07:22:26;;;;;;;42.17;6.75;;;7.30;99.90;;;;;;5074128;28;20048;-57
2024/02/20 07:24:52;;;;;;;54.80;8.02;;;7.30;99.90;;;;;;5071516;28;20016;-57
2024/02/20 07:27:17;;;;;;;43.00;6.85;;;7.30;99.90;;;;;;5072277;28;20078;-57
2024/02/20 07:29:43;;;;;;;31.95;8.05;;;7.30;99.90;;;;;;5072392;28;20769;-56
2024/02/20 07:32:10;;;;;;;34.25;7.53;;;7.30;99.90;;;;;;5076364;28;20107;-57
2024/02/20 07:34:37;;;;;;;34.55;7.47;;;7.40;99.90;;;;;;5073188;28;20024;-57
2024/02/20 07:37:03;;;;;;;50.38;8.50;;;7.40;99.90;;;;;;5069648;28;20034;-57
2024/02/20 07:39:28;;;;;;;40.65;8.00;;;7.40;99.90;;;;;;5072756;28;20028;-57
2024/02/20 07:41:54;;;;;;;35.80;7.95;;;7.50;99.90;;;;;;5070026;28;20122;-57
2024/02/20 07:44:19;;;;;;;67.53;9.50;;;7.50;99.90;;;;;;5075017;28;20033;-57
2024/02/20 07:46:47;;;;;;;39.55;7.50;;;7.60;99.90;;;;;;5071232;28;20074;-57
2024/02/20 07:49:12;;;;;;;33.72;7.75;;;7.60;99.90;;;;;;5070503;28;20020;-57
2024/02/20 07:51:38;;;;;;;48.42;8.38;;;7.60;99.90;;;;;;5071596;28;20550;-57
2024/02/20 07:54:03;;;;;;;54.88;9.23;;;7.60;99.90;;;;;;5075558;28;20030;-57
2024/02/20 07:56:30;;;;;;;44.97;9.73;;;7.60;99.90;;;;;;5070703;28;20496;-55
2024/02/20 07:58:55;;;;;;;51.85;8.82;;;7.70;99.90;;;;;;5071701;28;20028;-55
2024/02/20 08:01:22;;;;;;;36.95;8.20;;;7.70;99.90;;;;;;5078847;28;20393;-56
2024/02/20 08:03:49;;;;;;;49.50;8.43;;;7.70;99.90;;;;;;5078214;28;20663;-56
2024/02/20 08:06:15;;;;;;;34.88;7.55;;;7.80;99.90;;;;;;5075943;28;20410;-56
2024/02/20 08:08:44;;;;;;;36.83;6.90;;;7.80;99.90;;;;;;5071119;28;20023;-56
2024/02/20 08:11:10;;;;;;;46.53;8.47;;;7.90;99.90;;;;;;5070036;28;20209;-56
2024/02/20 08:13:40;;;;;;;35.35;7.22;;;8.00;99.90;;;;;;5070055;28;20424;-56
2024/02/20 08:16:06;;;;;;;45.70;9.15;;;8.00;99.90;;;;;;5076219;28;20031;-56
2024/02/20 08:18:31;;;;;;;43.08;8.02;;;8.10;99.90;;;;;;5075986;28;20016;-56
2024/02/20 08:20:56;;;;;;;50.53;9.18;;;8.10;99.90;;;;;;5068745;28;20111;-56
2024/02/20 08:23:22;;;;;;;48.78;8.68;;;8.10;99.90;;;;;;5068760;28;20478;-56
2024/02/20 08:25:47;;;;;;;50.65;8.75;;;8.10;99.90;;;;;;5075225;28;20038;-56
2024/02/20 08:28:13;;;;;;;43.60;8.30;;;8.20;99.90;;;;;;5071964;28;20031;-56
2024/02/20 08:30:39;;;;;;;37.75;7.43;;;8.20;99.90;;;;;;5069773;28;20042;-56
2024/02/20 08:33:06;;;;;;;39.10;7.53;;;8.30;99.90;;;;;;5063934;28;20031;-56
2024/02/20 08:35:32;;;;;;;57.45;9.48;;;8.30;99.90;;;;;;5071344;28;20524;-56
2024/02/20 08:37:59;;;;;;;49.05;9.07;;;8.30;99.90;;;;;;5071828;28;20025;-57
2024/02/20 08:40:24;;;;;;;43.20;8.57;;;8.30;99.90;;;;;;5067980;28;20032;-56
2024/02/20 08:42:50;;;;;;;51.53;8.63;;;8.30;99.90;;;;;;5071386;28;20024;-56
2024/02/20 08:45:15;;;;;;;49.13;8.05;;;8.30;99.90;;;;;;5072126;28;20024;-56
2024/02/20 08:47:41;;;;;;;47.22;8.55;;;8.30;99.90;;;;;;5070690;28;20414;-56
2024/02/20 08:50:08;;;;;;;43.13;8.05;;;8.40;99.90;;;;;;5071782;28;20507;-56
2024/02/20 08:52:34;;;;;;;45.95;9.57;;;8.50;99.90;;;;;;5068342;28;20047;-56
2024/02/20 08:54:59;;;;;;;49.92;9.27;;;8.60;99.90;;;;;;5071397;28;20020;-57
2024/02/20 08:57:25;;;;;;;54.25;9.25;;;8.70;99.90;;;;;;5073124;28;20181;-57
2024/02/20 08:59:50;;;;;;;45.28;8.68;;;8.70;99.90;;;;;;5070770;28;20043;-57
2024/02/20 09:02:16;;;;;;;43.15;8.48;;;8.70;99.90;;;;;;5068917;28;20020;-56
2024/02/20 09:04:43;;;;;;;48.92;7.95;;;8.90;99.90;;;;;;5073039;28;20028;-56
2024/02/20 09:07:09;;;;;;;39.03;7.63;;;9.00;99.90;;;;;;5071650;28;20035;-56
2024/02/20 09:09:36;;;;;;;39.95;9.23;;;9.10;99.90;;;;;;5076840;28;20028;-56
2024/02/20 09:12:02;;;;;;;39.60;7.88;;;9.30;99.90;;;;;;5067814;28;20027;-56
2024/02/20 09:14:27;;;;;;;47.58;8.15;;;9.30;99.90;;;;;;5070362;28;20925;-57
2024/02/20 09:16:53;;;;;;;39.25;8.52;;;9.20;99.90;;;;;;5074064;28;20037;-57
2024/02/20 09:19:18;;;;;;;46.40;8.63;;;9.10;99.90;;;;;;5070856;28;20032;-56
2024/02/20 09:21:47;;;;;;;39.33;8.55;;;9.00;99.90;;;;;;5070346;28;20107;-57
2024/02/20 09:24:13;;;;;;;34.40;7.78;;;9.00;99.90;;;;;;5073233;28;20078;-57
2024/02/20 09:26:38;;;;;;;38.72;7.97;;;9.00;99.90;;;;;;5073407;28;20424;-57
2024/02/20 09:29:03;;;;;;;42.05;9.07;;;9.00;99.90;;;;;;5073352;28;20482;-57
2024/02/20 09:31:29;;;;;;;39.65;7.63;;;9.20;99.90;;;;;;5072684;28;20024;-57
2024/02/20 09:33:55;;;;;;;37.75;6.90;;;9.30;99.90;;;;;;5070862;28;20028;-57
2024/02/20 09:36:21;;;;;;;30.25;6.75;;;9.60;99.90;;;;;;5071370;28;20170;-56
2024/02/20 09:38:46;;;;;;;24.05;6.85;;;10.20;99.90;;;;;;5072824;28;20103;-57
2024/02/20 09:41:23;;;;;;;35.63;7.38;;;10.80;99.90;;;;;;5071946;28;20042;-57
2024/02/20 09:43:49;;;;;;;26.83;5.65;;;11.20;99.90;;;;;;5065682;28;20024;-56
2024/02/20 09:46:19;;;;;;;28.83;6.55;;;12.10;99.90;;;;;;5071233;28;20159;-56
2024/02/20 09:48:49;;;;;;;26.58;6.82;;;12.90;99.90;;;;;;5068238;28;20016;-57
2024/02/20 09:51:19;;;;;;;31.67;7.10;;;14.10;99.90;;;;;;5071484;28;20031;-57
2024/02/20 09:53:44;;;;;;;25.33;7.22;;;14.10;99.90;;;;;;5076539;28;20523;-57
2024/02/20 09:56:12;;;;;;;26.20;7.93;;;15.10;99.90;;;;;;5074089;28;20023;-57
2024/02/20 09:58:38;;;;;;;20.20;6.53;;;15.50;99.90;;;;;;5071168;28;20120;-57
2024/02/20 10:01:04;;;;;;;34.88;7.82;;;16.00;99.90;;;;;;5072539;28;20163;-57
2024/02/20 10:03:33;;;;;;;24.98;7.88;;;16.10;97.40;;;;;;5073814;28;20017;-57
2024/02/20 10:05:59;;;;;;;25.67;7.15;;;15.60;99.90;;;;;;5069981;28;20008;-57
2024/02/20 10:08:26;;;;;;;23.13;6.90;;;15.60;98.70;;;;;;5069327;28;20039;-57
2024/02/20 10:10:52;;;;;;;27.08;7.15;;;15.70;98.70;;;;;;5072702;28;20070;-57
2024/02/20 10:13:19;;;;;;;23.05;6.35;;;16.30;96.70;;;;;;5080245;28;20060;-57
2024/02/20 10:15:45;;;;;;;22.55;6.60;;;17.20;96.20;;;;;;5073596;28;20030;-57
2024/02/20 10:18:11;;;;;;;22.58;5.53;;;18.10;95.00;;;;;;5077505;28;20040;-57
2024/02/20 10:20:37;;;;;;;27.77;6.63;;;19.40;93.90;;;;;;5075611;28;20419;-57
2024/02/20 10:23:07;;;;;;;17.13;6.35;;;20.50;90.30;;;;;;5076094;28;20017;-57
2024/02/20 10:25:33;;;;;;;20.70;6.68;;;20.10;88.90;;;;;;5073662;28;20469;-57
2024/02/20 10:27:59;;;;;;;25.33;6.88;;;20.10;86.80;;;;;;5074786;28;20025;-57
2024/02/20 10:30:25;;;;;;;20.52;6.22;;;19.90;86.40;;;;;;5073878;28;20372;-57
2024/02/20 10:32:50;;;;;;;20.55;6.40;;;19.50;87.60;;;;;;5074611;28;20029;-57
2024/02/20 10:35:16;;;;;;;25.20;7.88;;;19.40;86.70;;;;;;5075361;28;20032;-58
2024/02/20 10:37:41;;;;;;;23.95;6.82;;;19.70;84.90;;;;;;5074860;28;20040;-57
2024/02/20 10:40:08;;;;;;;22.90;5.75;;;20.10;85.50;;;;;;5072877;28;20036;-58
2024/02/20 10:42:38;;;;;;;19.67;6.13;;;20.20;83.40;;;;;;5076968;28;20024;-58
2024/02/20 10:45:11;;;;;;;17.13;6.07;;;20.70;81.80;;;;;;5075450;28;20228;-57
2024/02/20 10:47:45;;;;;;;20.02;6.32;;;20.90;83.50;;;;;;5075974;28;20111;-57
2024/02/20 10:50:15;;;;;;;16.92;5.20;;;21.30;81.90;;;;;;5075401;28;20052;-57
2024/02/20 10:52:42;;;;;;;22.93;5.83;;;21.50;82.60;;;;;;5075862;28;20025;-57
2024/02/20 10:55:12;;;;;;;23.33;6.40;;;21.80;80.50;;;;;;5074808;28;20391;-58
2024/02/20 10:57:39;;;;;;;22.60;6.43;;;20.90;79.30;;;;;;5075953;28;20154;-57
2024/02/20 11:00:09;;;;;;;19.88;5.75;;;20.00;82.30;;;;;;5073182;28;20410;-57
2024/02/20 11:02:36;;;;;;;;;;;19.70;83.00;;;;;;5077100;28;20483;-57
2024/02/20 11:05:02;;;;;;;15.57;5.60;;;19.60;86.10;;;;;;5075321;28;19905;-57
2024/02/20 11:07:28;;;;;;;24.23;7.35;;;19.60;84.10;;;;;;5077445;28;20477;-57
2024/02/20 11:10:14;;;;;;;18.23;6.20;;;18.70;82.80;;;;;;5073240;28;20079;-59
2024/02/20 11:12:40;;;;;;;20.00;5.78;;;17.80;86.30;;;;;;5074497;28;20050;-58
2024/02/20 11:15:11;;;;;;;21.95;7.55;;;17.10;90.60;;;;;;5074826;28;20439;-58
2024/02/20 11:17:38;;;;;;;23.42;6.47;;;16.70;90.20;;;;;;5074302;28;20059;-58
2024/02/20 11:20:17;;;;;;;22.08;6.75;;;16.10;91.60;;;;;;5073086;28;20019;-58
2024/02/20 11:22:44;;;;;;;25.50;7.07;;;15.60;92.90;;;;;;5073389;28;20024;-57
2024/02/20 11:25:14;;;;;;;26.13;7.40;;;14.90;93.10;;;;;;5075211;28;20065;-58
2024/02/20 11:27:41;;;;;;;;;;;14.40;94.60;;;;;;5076396;28;20027;-58
2024/02/20 11:30:13;;;;;;;25.83;6.43;;;14.40;94.50;;;;;;5073173;28;19904;-57
2024/02/20 11:32:42;;;;;;;21.58;5.43;;;14.60;94.40;;;;;;5075494;28;20021;-57
2024/02/20 11:35:33;;;;;;;18.08;5.65;;;14.80;93.20;;;;;;5072707;28;20024;-57
2024/02/20 11:38:00;;;;;;;22.98;5.80;;;15.00;93.50;;;;;;5074394;28;20017;-57
2024/02/20 11:40:28;;;;;;;23.58;6.35;;;14.90;93.90;;;;;;5078766;28;20044;-57
2024/02/20 11:42:59;;;;;;;19.65;5.40;;;14.80;94.00;;;;;;5074556;28;20016;-57
2024/02/20 11:45:28;;;;;;;20.67;5.32;;;15.10;94.10;;;;;;5077188;28;20020;-56
2024/02/20 11:48:02;;;;;;;26.00;6.78;;;15.10;94.60;;;;;;5076019;28;20040;-57
2024/02/20 11:50:29;;;;;;;23.25;6.00;;;14.90;94.70;;;;;;5071452;28;20419;-57
2024/02/20 11:53:06;;;;;;;23.60;6.47;;;14.10;95.80;;;;;;5074147;28;20037;-57
2024/02/20 11:55:33;;;;;;;28.08;6.53;;;13.70;97.30;;;;;;5071447;28;20377;-56
2024/02/20 11:58:03;;;;;;;30.70;6.80;;;13.20;97.90;;;;;;5073894;28;20023;-56
2024/02/20 12:00:39;;;;;;;29.50;6.78;;;13.00;98.00;;;;;;5073311;28;20027;-56
2024/02/20 12:03:07;;;;;;;21.42;5.50;;;12.90;99.90;;;;;;5075097;28;20562;-56
2024/02/20 12:05:37;;;;;;;24.48;6.15;;;12.60;99.90;;;;;;5074832;28;20529;-57
2024/02/20 12:08:17;;;;;;;29.00;6.67;;;12.60;99.90;;;;;;5072013;28;20027;-57
2024/02/20 12:10:44;;;;;;;23.23;5.57;;;12.50;99.90;;;;;;5072512;28;20316;-57
2024/02/20 12:13:20;;;;;;;27.17;5.57;;;12.50;99.90;;;;;;5074280;28;20095;-57
2024/02/20 12:15:50;;;;;;;23.55;5.88;;;12.50;99.90;;;;;;5073448;28;20595;-57
2024/02/20 12:18:30;;;;;;;21.52;5.60;;;12.20;99.90;;;;;;5075226;28;20012;-57
2024/02/20 12:21:24;;;;;;;30.45;6.88;;;12.10;99.90;;;;;;5068210;28;20156;-57
2024/02/20 12:23:57;;;;;;;32.08;6.05;;;12.00;99.90;;;;;;5069001;28;20056;-57
2024/02/20 12:26:24;;;;;;;27.73;5.55;;;12.00;99.90;;;;;;5067355;28;20048;-57
2024/02/20 12:28:50;;;;;;;26.33;4.78;;;11.90;99.90;;;;;;5070538;28;20481;-57
2024/02/20 12:31:24;;;;;;;22.15;4.72;;;11.90;99.90;;;;;;5068956;28;20539;-57
2024/02/20 12:33:50;;;;;;;30.45;6.90;;;11.70;99.90;;;;;;5071037;28;20019;-57
2024/02/20 12:36:16;;;;;;;28.58;6.15;;;11.60;99.90;;;;;;5065382;28;20381;-57
2024/02/20 12:38:43;;;;;;;27.02;5.63;;;11.60;99.90;;;;;;5066523;28;20418;-57
2024/02/20 12:41:08;;;;;;;24.33;5.68;;;11.60;99.90;;;;;;5068744;28;20023;-57
2024/02/20 12:43:34;;;;;;;21.25;4.72;;;11.50;99.90;;;;;;5068697;28;20020;-57
2024/02/20 12:46:00;;;;;;;19.70;5.00;;;11.40;99.90;;;;;;5068297;28;20067;-57